sensor_id;sensor_type;location;lat;lon;timestamp;P1;durP1;ratioP1;P2;durP2;ratioP2
11731;SDS011;5922;53.734;10.258;2022-08-04T00:01:50;7.43;;;3.50;;
11731;SDS011;5922;53.734;10.258;2022-08-04T00:04:21;5.47;;;2.80;;
11731;SDS011;5922;53.734;10.258;2022-08-04T00:06:54;9.20;;;2.90;;
11731;SDS011;5922;53.734;10.258;2022-08-04T00:09:25;10.37;;;3.00;;
11731;SDS011;5922;53.734;10.258;2022-08-04T00:11:54;8.13;;;3.03;;
11731;SDS011;5922;53.734;10.258;2022-08-04T00:14:23;9.10;;;3.30;;
11731;SDS011;5922;53.734;10.258;2022-08-04T00:16:51;8.63;;;3.23;;
11731;SDS011;5922;53.734;10.258;2022-08-04T00:19:20;7.80;;;3.20;;
11731;SDS011;5922;53.734;10.258;2022-08-04T00:21:50;11.23;;;2.87;;
11731;SDS011;5922;53.734;10.258;2022-08-04T00:24:17;7.40;;;3.60;;
11731;SDS011;5922;53.734;10.258;2022-08-04T00:26:48;7.70;;;2.77;;
11731;SDS011;5922;53.734;10.258;2022-08-04T00:29:18;7.33;;;2.93;;
11731;SDS011;5922;53.734;10.258;2022-08-04T00:31:45;10.57;;;2.93;;
11731;SDS011;5922;53.734;10.258;2022-08-04T00:34:12;9.87;;;3.87;;
11731;SDS011;5922;53.734;10.258;2022-08-04T00:36:39;8.13;;;3.37;;
11731;SDS011;5922;53.734;10.258;2022-08-04T00:39:07;6.83;;;3.00;;
11731;SDS011;5922;53.734;10.258;2022-08-04T00:41:38;7.83;;;3.00;;
11731;SDS011;5922;53.734;10.258;2022-08-04T00:44:22;8.10;;;3.30;;
11731;SDS011;5922;53.734;10.258;2022-08-04T00:46:59;8.20;;;3.10;;
11731;SDS011;5922;53.734;10.258;2022-08-04T00:52:16;13.83;;;3.10;;
11731;SDS011;5922;53.734;10.258;2022-08-04T00:54:48;5.80;;;3.37;;
11731;SDS011;5922;53.734;10.258;2022-08-04T00:57:27;9.27;;;2.70;;
11731;SDS011;5922;53.734;10.258;2022-08-04T01:00:03;6.43;;;2.80;;
11731;SDS011;5922;53.734;10.258;2022-08-04T01:02:34;6.90;;;2.73;;
11731;SDS011;5922;53.734;10.258;2022-08-04T01:05:02;8.33;;;2.50;;
11731;SDS011;5922;53.734;10.258;2022-08-04T01:07:36;6.63;;;3.03;;
11731;SDS011;5922;53.734;10.258;2022-08-04T01:10:07;7.17;;;3.30;;
11731;SDS011;5922;53.734;10.258;2022-08-04T01:15:21;8.10;;;3.10;;
11731;SDS011;5922;53.734;10.258;2022-08-04T01:17:53;10.20;;;3.30;;
11731;SDS011;5922;53.734;10.258;2022-08-04T01:20:23;10.43;;;2.90;;
11731;SDS011;5922;53.734;10.258;2022-08-04T01:25:51;6.90;;;3.03;;
11731;SDS011;5922;53.734;10.258;2022-08-04T01:28:35;7.30;;;3.00;;
11731;SDS011;5922;53.734;10.258;2022-08-04T01:31:13;12.63;;;3.43;;
11731;SDS011;5922;53.734;10.258;2022-08-04T01:33:44;4.83;;;3.03;;
11731;SDS011;5922;53.734;10.258;2022-08-04T01:36:13;7.27;;;3.43;;
11731;SDS011;5922;53.734;10.258;2022-08-04T01:38:40;8.37;;;3.03;;
11731;SDS011;5922;53.734;10.258;2022-08-04T01:41:08;8.33;;;3.07;;
11731;SDS011;5922;53.734;10.258;2022-08-04T01:43:38;6.00;;;2.70;;
11731;SDS011;5922;53.734;10.258;2022-08-04T01:46:09;8.93;;;3.30;;
11731;SDS011;5922;53.734;10.258;2022-08-04T01:48:37;8.13;;;3.17;;
11731;SDS011;5922;53.734;10.258;2022-08-04T01:51:05;8.53;;;2.83;;
11731;SDS011;5922;53.734;10.258;2022-08-04T01:53:33;7.03;;;2.70;;
11731;SDS011;5922;53.734;10.258;2022-08-04T01:56:01;7.10;;;2.90;;
11731;SDS011;5922;53.734;10.258;2022-08-04T01:58:29;3.60;;;2.70;;
11731;SDS011;5922;53.734;10.258;2022-08-04T02:00:56;4.33;;;2.77;;
11731;SDS011;5922;53.734;10.258;2022-08-04T02:03:28;6.90;;;2.90;;
11731;SDS011;5922;53.734;10.258;2022-08-04T02:05:58;7.67;;;3.03;;
11731;SDS011;5922;53.734;10.258;2022-08-04T02:08:31;6.77;;;3.33;;
11731;SDS011;5922;53.734;10.258;2022-08-04T02:11:03;12.43;;;3.40;;
11731;SDS011;5922;53.734;10.258;2022-08-04T02:13:32;4.90;;;2.80;;
11731;SDS011;5922;53.734;10.258;2022-08-04T02:16:03;4.80;;;2.67;;
11731;SDS011;5922;53.734;10.258;2022-08-04T02:18:36;6.50;;;3.50;;
11731;SDS011;5922;53.734;10.258;2022-08-04T02:21:06;9.20;;;3.70;;
11731;SDS011;5922;53.734;10.258;2022-08-04T02:23:34;9.93;;;3.50;;
11731;SDS011;5922;53.734;10.258;2022-08-04T02:26:02;12.60;;;3.60;;
11731;SDS011;5922;53.734;10.258;2022-08-04T02:28:32;9.57;;;3.73;;
11731;SDS011;5922;53.734;10.258;2022-08-04T02:31:02;5.30;;;3.30;;
11731;SDS011;5922;53.734;10.258;2022-08-04T02:33:31;10.10;;;3.33;;
11731;SDS011;5922;53.734;10.258;2022-08-04T02:36:03;7.50;;;3.47;;
11731;SDS011;5922;53.734;10.258;2022-08-04T02:38:42;9.93;;;3.37;;
11731;SDS011;5922;53.734;10.258;2022-08-04T02:41:13;5.33;;;3.03;;
11731;SDS011;5922;53.734;10.258;2022-08-04T02:43:41;8.07;;;3.50;;
11731;SDS011;5922;53.734;10.258;2022-08-04T02:46:09;8.63;;;3.60;;
11731;SDS011;5922;53.734;10.258;2022-08-04T02:48:38;4.97;;;3.30;;
11731;SDS011;5922;53.734;10.258;2022-08-04T02:51:07;8.93;;;3.40;;
11731;SDS011;5922;53.734;10.258;2022-08-04T02:53:37;5.63;;;3.30;;
11731;SDS011;5922;53.734;10.258;2022-08-04T02:56:05;8.00;;;3.37;;
11731;SDS011;5922;53.734;10.258;2022-08-04T02:58:33;8.30;;;3.80;;
11731;SDS011;5922;53.734;10.258;2022-08-04T03:01:00;7.83;;;3.80;;
11731;SDS011;5922;53.734;10.258;2022-08-04T03:03:30;7.80;;;3.70;;
11731;SDS011;5922;53.734;10.258;2022-08-04T03:06:10;10.10;;;3.83;;
11731;SDS011;5922;53.734;10.258;2022-08-04T03:08:53;5.90;;;3.80;;
11731;SDS011;5922;53.734;10.258;2022-08-04T03:11:51;10.33;;;3.83;;
11731;SDS011;5922;53.734;10.258;2022-08-04T03:14:38;7.10;;;3.90;;
11731;SDS011;5922;53.734;10.258;2022-08-04T03:20:05;7.57;;;3.77;;
11731;SDS011;5922;53.734;10.258;2022-08-04T03:25:33;9.70;;;4.20;;
11731;SDS011;5922;53.734;10.258;2022-08-04T03:28:17;7.73;;;4.30;;
11731;SDS011;5922;53.734;10.258;2022-08-04T05:50:23;9.03;;;4.00;;
11731;SDS011;5922;53.734;10.258;2022-08-04T05:52:50;7.53;;;3.50;;
11731;SDS011;5922;53.734;10.258;2022-08-04T05:55:18;6.77;;;3.20;;
11731;SDS011;5922;53.734;10.258;2022-08-04T05:57:45;6.43;;;3.30;;
11731;SDS011;5922;53.734;10.258;2022-08-04T06:00:14;11.40;;;3.83;;
11731;SDS011;5922;53.734;10.258;2022-08-04T06:02:43;6.67;;;3.00;;
11731;SDS011;5922;53.734;10.258;2022-08-04T06:05:11;8.40;;;3.03;;
11731;SDS011;5922;53.734;10.258;2022-08-04T06:07:40;9.23;;;2.80;;
11731;SDS011;5922;53.734;10.258;2022-08-04T06:10:07;9.97;;;3.67;;
11731;SDS011;5922;53.734;10.258;2022-08-04T06:12:35;7.60;;;3.70;;
11731;SDS011;5922;53.734;10.258;2022-08-04T06:15:03;9.00;;;3.17;;
11731;SDS011;5922;53.734;10.258;2022-08-04T06:17:31;5.70;;;2.90;;
11731;SDS011;5922;53.734;10.258;2022-08-04T06:19:58;7.57;;;3.10;;
11731;SDS011;5922;53.734;10.258;2022-08-04T06:22:27;9.10;;;3.00;;
11731;SDS011;5922;53.734;10.258;2022-08-04T06:24:57;7.13;;;2.80;;
11731;SDS011;5922;53.734;10.258;2022-08-04T06:27:27;7.70;;;2.80;;
11731;SDS011;5922;53.734;10.258;2022-08-04T06:29:56;5.37;;;2.73;;
11731;SDS011;5922;53.734;10.258;2022-08-04T06:32:24;7.67;;;2.90;;
11731;SDS011;5922;53.734;10.258;2022-08-04T06:34:55;14.32;;;3.10;;
11731;SDS011;5922;53.734;10.258;2022-08-04T06:37:24;14.15;;;3.60;;
11731;SDS011;5922;53.734;10.258;2022-08-04T06:39:51;9.38;;;2.92;;
11731;SDS011;5922;53.734;10.258;2022-08-04T06:42:22;10.88;;;3.15;;
11731;SDS011;5922;53.734;10.258;2022-08-04T06:44:50;5.25;;;2.55;;
11731;SDS011;5922;53.734;10.258;2022-08-04T06:47:17;7.05;;;2.70;;
11731;SDS011;5922;53.734;10.258;2022-08-04T06:49:45;5.18;;;2.63;;
11731;SDS011;5922;53.734;10.258;2022-08-04T06:52:13;9.75;;;3.00;;
11731;SDS011;5922;53.734;10.258;2022-08-04T06:54:41;8.30;;;2.42;;
11731;SDS011;5922;53.734;10.258;2022-08-04T06:57:10;4.88;;;2.50;;
11731;SDS011;5922;53.734;10.258;2022-08-04T06:59:41;10.30;;;2.70;;
11731;SDS011;5922;53.734;10.258;2022-08-04T07:02:11;5.63;;;2.50;;
11731;SDS011;5922;53.734;10.258;2022-08-04T07:04:40;7.65;;;2.60;;
11731;SDS011;5922;53.734;10.258;2022-08-04T07:07:07;7.38;;;2.47;;
11731;SDS011;5922;53.734;10.258;2022-08-04T07:09:41;7.65;;;3.05;;
11731;SDS011;5922;53.734;10.258;2022-08-04T07:12:13;6.70;;;2.70;;
11731;SDS011;5922;53.734;10.258;2022-08-04T07:14:45;7.85;;;2.53;;
11731;SDS011;5922;53.734;10.258;2022-08-04T07:17:13;7.63;;;2.53;;
11731;SDS011;5922;53.734;10.258;2022-08-04T07:19:43;10.07;;;2.78;;
11731;SDS011;5922;53.734;10.258;2022-08-04T07:22:16;9.57;;;2.95;;
11731;SDS011;5922;53.734;10.258;2022-08-04T07:24:43;8.43;;;2.42;;
11731;SDS011;5922;53.734;10.258;2022-08-04T07:27:11;12.32;;;2.78;;
11731;SDS011;5922;53.734;10.258;2022-08-04T07:29:38;7.00;;;2.80;;
11731;SDS011;5922;53.734;10.258;2022-08-04T07:32:10;5.45;;;2.85;;
11731;SDS011;5922;53.734;10.258;2022-08-04T07:34:38;9.52;;;2.55;;
11731;SDS011;5922;53.734;10.258;2022-08-04T07:37:06;7.45;;;2.55;;
11731;SDS011;5922;53.734;10.258;2022-08-04T07:39:34;7.57;;;2.78;;
11731;SDS011;5922;53.734;10.258;2022-08-04T07:42:02;4.97;;;2.40;;
11731;SDS011;5922;53.734;10.258;2022-08-04T07:44:30;12.07;;;3.10;;
11731;SDS011;5922;53.734;10.258;2022-08-04T07:46:58;7.50;;;2.70;;
11731;SDS011;5922;53.734;10.258;2022-08-04T07:49:28;11.65;;;2.80;;
11731;SDS011;5922;53.734;10.258;2022-08-04T07:51:55;3.65;;;2.47;;
11731;SDS011;5922;53.734;10.258;2022-08-04T07:54:22;6.35;;;2.78;;
11731;SDS011;5922;53.734;10.258;2022-08-04T07:56:50;8.77;;;2.97;;
11731;SDS011;5922;53.734;10.258;2022-08-04T07:59:18;10.65;;;2.88;;
11731;SDS011;5922;53.734;10.258;2022-08-04T08:01:45;10.10;;;2.53;;
11731;SDS011;5922;53.734;10.258;2022-08-04T08:04:13;8.65;;;2.78;;
11731;SDS011;5922;53.734;10.258;2022-08-04T08:06:42;8.18;;;2.80;;
11731;SDS011;5922;53.734;10.258;2022-08-04T08:09:11;9.63;;;2.83;;
11731;SDS011;5922;53.734;10.258;2022-08-04T08:11:38;4.63;;;2.60;;
11731;SDS011;5922;53.734;10.258;2022-08-04T08:14:06;11.57;;;2.67;;
11731;SDS011;5922;53.734;10.258;2022-08-04T08:16:33;7.38;;;2.78;;
11731;SDS011;5922;53.734;10.258;2022-08-04T08:19:02;8.95;;;2.97;;
11731;SDS011;5922;53.734;10.258;2022-08-04T08:21:29;6.10;;;2.42;;
11731;SDS011;5922;53.734;10.258;2022-08-04T08:23:58;6.53;;;2.63;;
11731;SDS011;5922;53.734;10.258;2022-08-04T08:26:26;7.05;;;2.53;;
11731;SDS011;5922;53.734;10.258;2022-08-04T08:28:55;7.30;;;2.60;;
11731;SDS011;5922;53.734;10.258;2022-08-04T08:31:23;5.85;;;2.67;;
11731;SDS011;5922;53.734;10.258;2022-08-04T08:33:50;10.43;;;2.65;;
11731;SDS011;5922;53.734;10.258;2022-08-04T08:36:19;8.27;;;2.70;;
11731;SDS011;5922;53.734;10.258;2022-08-04T08:38:52;7.32;;;2.80;;
11731;SDS011;5922;53.734;10.258;2022-08-04T08:44:07;9.93;;;2.70;;
11731;SDS011;5922;53.734;10.258;2022-08-04T08:46:41;4.95;;;2.67;;
11731;SDS011;5922;53.734;10.258;2022-08-04T08:49:33;6.80;;;2.50;;
11731;SDS011;5922;53.734;10.258;2022-08-04T08:52:10;9.68;;;2.65;;
11731;SDS011;5922;53.734;10.258;2022-08-04T08:57:32;9.48;;;2.80;;
11731;SDS011;5922;53.734;10.258;2022-08-04T09:00:03;4.13;;;2.60;;
11731;SDS011;5922;53.734;10.258;2022-08-04T09:02:55;4.95;;;2.58;;
11731;SDS011;5922;53.734;10.258;2022-08-04T09:05:36;7.07;;;2.80;;
11731;SDS011;5922;53.734;10.258;2022-08-04T09:08:08;7.13;;;3.03;;
11731;SDS011;5922;53.734;10.258;2022-08-04T09:10:43;5.07;;;3.00;;
11731;SDS011;5922;53.734;10.258;2022-08-04T09:13:12;7.07;;;3.10;;
11731;SDS011;5922;53.734;10.258;2022-08-04T09:15:45;9.88;;;2.92;;
11731;SDS011;5922;53.734;10.258;2022-08-04T09:18:17;12.35;;;2.90;;
11731;SDS011;5922;53.734;10.258;2022-08-04T09:20:46;4.55;;;2.42;;
11731;SDS011;5922;53.734;10.258;2022-08-04T09:23:16;4.93;;;2.67;;
11731;SDS011;5922;53.734;10.258;2022-08-04T09:25:47;9.13;;;2.65;;
11731;SDS011;5922;53.734;10.258;2022-08-04T09:28:18;6.32;;;3.10;;
11731;SDS011;5922;53.734;10.258;2022-08-04T09:30:51;3.67;;;2.50;;
11731;SDS011;5922;53.734;10.258;2022-08-04T09:33:22;8.77;;;2.75;;
11731;SDS011;5922;53.734;10.258;2022-08-04T09:35:53;3.33;;;2.72;;
11731;SDS011;5922;53.734;10.258;2022-08-04T09:38:26;4.47;;;2.53;;
11731;SDS011;5922;53.734;10.258;2022-08-04T09:40:55;3.78;;;2.60;;
11731;SDS011;5922;53.734;10.258;2022-08-04T09:43:28;8.70;;;2.70;;
11731;SDS011;5922;53.734;10.258;2022-08-04T09:46:00;2.95;;;2.40;;
11731;SDS011;5922;53.734;10.258;2022-08-04T09:48:33;3.17;;;2.30;;
11731;SDS011;5922;53.734;10.258;2022-08-04T09:51:01;8.35;;;2.88;;
11731;SDS011;5922;53.734;10.258;2022-08-04T09:53:35;5.28;;;2.80;;
11731;SDS011;5922;53.734;10.258;2022-08-04T09:56:08;4.20;;;2.53;;
11731;SDS011;5922;53.734;10.258;2022-08-04T09:59:21;3.15;;;2.50;;
11731;SDS011;5922;53.734;10.258;2022-08-04T10:33:50;4.47;;;2.22;;
11731;SDS011;5922;53.734;10.258;2022-08-04T10:36:22;2.63;;;2.42;;
11731;SDS011;5922;53.734;10.258;2022-08-04T10:38:56;3.10;;;2.40;;
11731;SDS011;5922;53.734;10.258;2022-08-04T10:41:26;2.70;;;2.50;;
11731;SDS011;5922;53.734;10.258;2022-08-04T10:44:02;4.53;;;2.30;;
11731;SDS011;5922;53.734;10.258;2022-08-04T10:49:19;3.78;;;2.65;;
11731;SDS011;5922;53.734;10.258;2022-08-04T10:51:49;7.18;;;2.90;;
11731;SDS011;5922;53.734;10.258;2022-08-04T10:54:18;3.40;;;2.50;;
11731;SDS011;5922;53.734;10.258;2022-08-04T10:56:48;2.78;;;2.53;;
11731;SDS011;5922;53.734;10.258;2022-08-04T10:59:20;6.97;;;2.67;;
11731;SDS011;5922;53.734;10.258;2022-08-04T11:01:54;7.22;;;2.55;;
11731;SDS011;5922;53.734;10.258;2022-08-04T11:07:36;7.30;;;3.20;;
11731;SDS011;5922;53.734;10.258;2022-08-04T11:10:13;5.25;;;2.42;;
11731;SDS011;5922;53.734;10.258;2022-08-04T11:13:05;6.38;;;2.80;;
11731;SDS011;5922;53.734;10.258;2022-08-04T11:16:05;5.50;;;3.83;;
11731;SDS011;5922;53.734;10.258;2022-08-04T11:18:45;3.20;;;2.35;;
11731;SDS011;5922;53.734;10.258;2022-08-04T11:21:14;8.73;;;3.70;;
11731;SDS011;5922;53.734;10.258;2022-08-04T11:23:51;6.25;;;2.70;;
11731;SDS011;5922;53.734;10.258;2022-08-04T11:26:23;6.10;;;3.35;;
11731;SDS011;5922;53.734;10.258;2022-08-04T11:28:54;6.00;;;2.83;;
11731;SDS011;5922;53.734;10.258;2022-08-04T11:31:24;8.77;;;2.72;;
11731;SDS011;5922;53.734;10.258;2022-08-04T11:33:55;4.65;;;2.75;;
11731;SDS011;5922;53.734;10.258;2022-08-04T11:36:31;2.75;;;2.55;;
11731;SDS011;5922;53.734;10.258;2022-08-04T11:39:23;4.13;;;2.85;;
11731;SDS011;5922;53.734;10.258;2022-08-04T11:42:06;4.43;;;3.03;;
11731;SDS011;5922;53.734;10.258;2022-08-04T11:47:50;6.00;;;2.53;;
11731;SDS011;5922;53.734;10.258;2022-08-04T11:50:36;3.63;;;2.80;;
11731;SDS011;5922;53.734;10.258;2022-08-04T11:58:55;2.90;;;2.58;;
11731;SDS011;5922;53.734;10.258;2022-08-04T12:01:37;3.70;;;2.40;;
11731;SDS011;5922;53.734;10.258;2022-08-04T12:04:46;9.75;;;3.40;;
11731;SDS011;5922;53.734;10.258;2022-08-04T12:07:22;5.10;;;3.20;;
11731;SDS011;5922;53.734;10.258;2022-08-04T12:10:04;3.20;;;2.90;;
11731;SDS011;5922;53.734;10.258;2022-08-04T12:12:49;2.85;;;2.60;;
11731;SDS011;5922;53.734;10.258;2022-08-04T12:15:35;4.47;;;2.92;;
11731;SDS011;5922;53.734;10.258;2022-08-04T12:18:06;4.68;;;2.88;;
11731;SDS011;5922;53.734;10.258;2022-08-04T12:21:10;6.55;;;2.90;;
11731;SDS011;5922;53.734;10.258;2022-08-04T12:23:38;8.88;;;2.85;;
11731;SDS011;5922;53.734;10.258;2022-08-04T12:26:08;8.00;;;2.88;;
11731;SDS011;5922;53.734;10.258;2022-08-04T12:28:39;8.55;;;2.97;;
11731;SDS011;5922;53.734;10.258;2022-08-04T12:31:10;7.47;;;2.72;;
11731;SDS011;5922;53.734;10.258;2022-08-04T12:33:39;3.78;;;3.10;;
11731;SDS011;5922;53.734;10.258;2022-08-04T12:36:14;3.60;;;2.85;;
11731;SDS011;5922;53.734;10.258;2022-08-04T12:38:47;4.35;;;2.90;;
11731;SDS011;5922;53.734;10.258;2022-08-04T12:41:15;5.32;;;3.00;;
11731;SDS011;5922;53.734;10.258;2022-08-04T12:43:45;7.47;;;2.58;;
11731;SDS011;5922;53.734;10.258;2022-08-04T12:46:19;7.72;;;2.80;;
11731;SDS011;5922;53.734;10.258;2022-08-04T12:48:47;6.53;;;2.90;;
11731;SDS011;5922;53.734;10.258;2022-08-04T12:51:15;3.20;;;2.88;;
11731;SDS011;5922;53.734;10.258;2022-08-04T12:53:44;3.95;;;2.75;;
11731;SDS011;5922;53.734;10.258;2022-08-04T12:56:13;3.03;;;2.55;;
11731;SDS011;5922;53.734;10.258;2022-08-04T12:58:40;3.28;;;2.72;;
11731;SDS011;5922;53.734;10.258;2022-08-04T13:01:09;4.05;;;2.70;;
11731;SDS011;5922;53.734;10.258;2022-08-04T13:03:38;3.65;;;2.50;;
11731;SDS011;5922;53.734;10.258;2022-08-04T13:06:06;3.55;;;2.60;;
11731;SDS011;5922;53.734;10.258;2022-08-04T13:08:35;7.78;;;2.50;;
11731;SDS011;5922;53.734;10.258;2022-08-04T13:11:03;4.97;;;2.70;;
11731;SDS011;5922;53.734;10.258;2022-08-04T13:13:31;2.95;;;2.53;;
11731;SDS011;5922;53.734;10.258;2022-08-04T13:16:00;4.90;;;2.70;;
11731;SDS011;5922;53.734;10.258;2022-08-04T13:18:28;3.95;;;2.40;;
11731;SDS011;5922;53.734;10.258;2022-08-04T13:20:57;14.68;;;3.60;;
11731;SDS011;5922;53.734;10.258;2022-08-04T13:23:33;3.10;;;2.60;;
11731;SDS011;5922;53.734;10.258;2022-08-04T13:26:02;2.80;;;2.60;;
11731;SDS011;5922;53.734;10.258;2022-08-04T13:28:30;3.72;;;2.70;;
11731;SDS011;5922;53.734;10.258;2022-08-04T13:30:59;2.80;;;2.60;;
11731;SDS011;5922;53.734;10.258;2022-08-04T13:33:28;2.90;;;2.60;;
11731;SDS011;5922;53.734;10.258;2022-08-04T13:35:58;3.72;;;2.38;;
11731;SDS011;5922;53.734;10.258;2022-08-04T13:38:39;3.33;;;2.55;;
11731;SDS011;5922;53.734;10.258;2022-08-04T13:41:06;3.60;;;2.78;;
11731;SDS011;5922;53.734;10.258;2022-08-04T13:43:39;5.75;;;2.72;;
11731;SDS011;5922;53.734;10.258;2022-08-04T13:46:07;6.60;;;2.70;;
11731;SDS011;5922;53.734;10.258;2022-08-04T13:48:36;4.22;;;2.30;;
11731;SDS011;5922;53.734;10.258;2022-08-04T13:51:05;5.63;;;2.70;;
11731;SDS011;5922;53.734;10.258;2022-08-04T13:53:33;6.35;;;2.72;;
11731;SDS011;5922;53.734;10.258;2022-08-04T13:56:02;2.72;;;2.50;;
11731;SDS011;5922;53.734;10.258;2022-08-04T13:58:30;3.53;;;2.63;;
11731;SDS011;5922;53.734;10.258;2022-08-04T14:00:58;2.95;;;2.75;;
11731;SDS011;5922;53.734;10.258;2022-08-04T14:03:29;10.55;;;2.80;;
11731;SDS011;5922;53.734;10.258;2022-08-04T14:06:09;4.00;;;2.60;;
11731;SDS011;5922;53.734;10.258;2022-08-04T14:08:42;5.03;;;3.00;;
11731;SDS011;5922;53.734;10.258;2022-08-04T14:11:14;2.78;;;2.58;;
11731;SDS011;5922;53.734;10.258;2022-08-04T14:13:42;3.50;;;2.80;;
11731;SDS011;5922;53.734;10.258;2022-08-04T14:16:13;4.82;;;2.40;;
11731;SDS011;5922;53.734;10.258;2022-08-04T14:18:40;4.22;;;2.00;;
11731;SDS011;5922;53.734;10.258;2022-08-04T14:21:09;5.55;;;2.95;;
11731;SDS011;5922;53.734;10.258;2022-08-04T14:23:38;3.78;;;2.90;;
11731;SDS011;5922;53.734;10.258;2022-08-04T14:26:19;5.35;;;2.80;;
11731;SDS011;5922;53.734;10.258;2022-08-04T14:28:47;2.88;;;2.60;;
11731;SDS011;5922;53.734;10.258;2022-08-04T14:31:15;5.55;;;2.58;;
11731;SDS011;5922;53.734;10.258;2022-08-04T14:33:44;5.82;;;2.88;;
11731;SDS011;5922;53.734;10.258;2022-08-04T14:36:13;3.78;;;2.50;;
11731;SDS011;5922;53.734;10.258;2022-08-04T14:38:42;5.97;;;2.78;;
11731;SDS011;5922;53.734;10.258;2022-08-04T14:41:09;5.43;;;2.42;;
11731;SDS011;5922;53.734;10.258;2022-08-04T14:43:40;4.43;;;2.70;;
11731;SDS011;5922;53.734;10.258;2022-08-04T14:46:08;6.32;;;2.85;;
11731;SDS011;5922;53.734;10.258;2022-08-04T14:48:36;3.72;;;2.80;;
11731;SDS011;5922;53.734;10.258;2022-08-04T14:51:03;3.47;;;2.40;;
11731;SDS011;5922;53.734;10.258;2022-08-04T14:53:33;4.47;;;2.70;;
11731;SDS011;5922;53.734;10.258;2022-08-04T14:56:03;3.92;;;2.47;;
11731;SDS011;5922;53.734;10.258;2022-08-04T14:58:32;5.38;;;2.65;;
11731;SDS011;5922;53.734;10.258;2022-08-04T15:01:01;5.85;;;2.50;;
11731;SDS011;5922;53.734;10.258;2022-08-04T15:03:29;7.35;;;3.00;;
11731;SDS011;5922;53.734;10.258;2022-08-04T15:05:57;5.18;;;2.67;;
11731;SDS011;5922;53.734;10.258;2022-08-04T15:08:25;4.15;;;2.75;;
11731;SDS011;5922;53.734;10.258;2022-08-04T15:10:54;3.00;;;2.70;;
11731;SDS011;5922;53.734;10.258;2022-08-04T15:13:26;4.85;;;3.10;;
11731;SDS011;5922;53.734;10.258;2022-08-04T15:15:53;3.95;;;3.13;;
11731;SDS011;5922;53.734;10.258;2022-08-04T15:18:22;5.15;;;2.60;;
11731;SDS011;5922;53.734;10.258;2022-08-04T15:20:54;8.05;;;2.65;;
11731;SDS011;5922;53.734;10.258;2022-08-04T15:23:21;7.30;;;2.70;;
11731;SDS011;5922;53.734;10.258;2022-08-04T15:25:50;5.82;;;2.90;;
11731;SDS011;5922;53.734;10.258;2022-08-04T15:28:21;3.03;;;2.60;;
11731;SDS011;5922;53.734;10.258;2022-08-04T15:30:55;6.68;;;2.78;;
11731;SDS011;5922;53.734;10.258;2022-08-04T15:33:23;6.60;;;2.80;;
11731;SDS011;5922;53.734;10.258;2022-08-04T15:35:53;7.88;;;3.70;;
11731;SDS011;5922;53.734;10.258;2022-08-04T15:38:23;8.30;;;3.95;;
11731;SDS011;5922;53.734;10.258;2022-08-04T15:40:57;9.07;;;3.78;;
11731;SDS011;5922;53.734;10.258;2022-08-04T15:43:33;9.13;;;3.40;;
11731;SDS011;5922;53.734;10.258;2022-08-04T15:46:06;6.75;;;3.67;;
11731;SDS011;5922;53.734;10.258;2022-08-04T15:48:33;5.93;;;3.22;;
11731;SDS011;5922;53.734;10.258;2022-08-04T15:51:10;11.93;;;3.90;;
11731;SDS011;5922;53.734;10.258;2022-08-04T15:56:42;13.57;;;3.85;;
11731;SDS011;5922;53.734;10.258;2022-08-04T15:59:11;7.80;;;3.58;;
11731;SDS011;5922;53.734;10.258;2022-08-04T16:01:38;11.90;;;3.60;;
11731;SDS011;5922;53.734;10.258;2022-08-04T16:04:20;13.00;;;3.95;;
11731;SDS011;5922;53.734;10.258;2022-08-04T16:06:48;14.85;;;3.83;;
11731;SDS011;5922;53.734;10.258;2022-08-04T16:09:22;10.70;;;3.83;;
11731;SDS011;5922;53.734;10.258;2022-08-04T16:11:50;7.70;;;3.42;;
11731;SDS011;5922;53.734;10.258;2022-08-04T16:14:30;8.15;;;3.78;;
11731;SDS011;5922;53.734;10.258;2022-08-04T16:16:57;9.13;;;3.55;;
11731;SDS011;5922;53.734;10.258;2022-08-04T16:19:44;13.40;;;3.92;;
11731;SDS011;5922;53.734;10.258;2022-08-04T16:22:30;8.98;;;3.95;;
11731;SDS011;5922;53.734;10.258;2022-08-04T16:24:57;16.75;;;4.10;;
11731;SDS011;5922;53.734;10.258;2022-08-04T16:27:33;10.20;;;4.20;;
11731;SDS011;5922;53.734;10.258;2022-08-04T16:30:03;10.20;;;4.35;;
11731;SDS011;5922;53.734;10.258;2022-08-04T16:32:35;10.50;;;4.78;;
11731;SDS011;5922;53.734;10.258;2022-08-04T16:35:16;10.80;;;4.40;;
11731;SDS011;5922;53.734;10.258;2022-08-04T16:37:44;10.02;;;3.97;;
11731;SDS011;5922;53.734;10.258;2022-08-04T16:40:30;13.57;;;4.45;;
11731;SDS011;5922;53.734;10.258;2022-08-04T16:42:58;9.43;;;4.20;;
11731;SDS011;5922;53.734;10.258;2022-08-04T16:48:25;11.55;;;4.95;;
11731;SDS011;5922;53.734;10.258;2022-08-04T16:50:59;12.32;;;4.90;;
11731;SDS011;5922;53.734;10.258;2022-08-04T16:53:28;11.10;;;4.25;;
11731;SDS011;5922;53.734;10.258;2022-08-04T16:55:58;11.40;;;4.28;;
11731;SDS011;5922;53.734;10.258;2022-08-04T16:58:27;10.48;;;4.65;;
11731;SDS011;5922;53.734;10.258;2022-08-04T17:00:55;7.18;;;4.07;;
11731;SDS011;5922;53.734;10.258;2022-08-04T17:03:22;10.05;;;4.05;;
11731;SDS011;5922;53.734;10.258;2022-08-04T17:05:51;12.57;;;4.55;;
11731;SDS011;5922;53.734;10.258;2022-08-04T17:08:30;8.05;;;3.78;;
11731;SDS011;5922;53.734;10.258;2022-08-04T17:10:59;7.60;;;4.20;;
11731;SDS011;5922;53.734;10.258;2022-08-04T17:13:27;9.73;;;4.65;;
11731;SDS011;5922;53.734;10.258;2022-08-04T17:15:55;10.13;;;4.73;;
11731;SDS011;5922;53.734;10.258;2022-08-04T17:18:23;9.47;;;4.00;;
11731;SDS011;5922;53.734;10.258;2022-08-04T17:20:53;9.47;;;3.90;;
11731;SDS011;5922;53.734;10.258;2022-08-04T17:23:21;9.27;;;4.07;;
11731;SDS011;5922;53.734;10.258;2022-08-04T17:25:51;12.10;;;3.93;;
11731;SDS011;5922;53.734;10.258;2022-08-04T17:28:18;11.13;;;3.70;;
11731;SDS011;5922;53.734;10.258;2022-08-04T17:30:46;12.97;;;4.20;;
11731;SDS011;5922;53.734;10.258;2022-08-04T17:33:14;9.65;;;4.10;;
11731;SDS011;5922;53.734;10.258;2022-08-04T17:35:41;6.87;;;4.17;;
11731;SDS011;5922;53.734;10.258;2022-08-04T17:38:10;9.27;;;4.00;;
11731;SDS011;5922;53.734;10.258;2022-08-04T17:40:49;9.90;;;4.17;;
11731;SDS011;5922;53.734;10.258;2022-08-04T17:43:16;8.27;;;4.33;;
11731;SDS011;5922;53.734;10.258;2022-08-04T17:45:43;10.50;;;4.20;;
11731;SDS011;5922;53.734;10.258;2022-08-04T17:48:17;6.73;;;3.83;;
11731;SDS011;5922;53.734;10.258;2022-08-04T17:50:44;10.37;;;4.00;;
11731;SDS011;5922;53.734;10.258;2022-08-04T17:53:12;12.60;;;3.67;;
11731;SDS011;5922;53.734;10.258;2022-08-04T17:55:41;8.63;;;3.80;;
11731;SDS011;5922;53.734;10.258;2022-08-04T17:58:15;10.83;;;3.60;;
11731;SDS011;5922;53.734;10.258;2022-08-04T18:00:42;8.67;;;3.67;;
11731;SDS011;5922;53.734;10.258;2022-08-04T18:03:20;14.73;;;3.87;;
11731;SDS011;5922;53.734;10.258;2022-08-04T18:05:47;11.47;;;3.80;;
11731;SDS011;5922;53.734;10.258;2022-08-04T18:08:22;8.87;;;4.00;;
11731;SDS011;5922;53.734;10.258;2022-08-04T18:10:51;11.10;;;3.80;;
11731;SDS011;5922;53.734;10.258;2022-08-04T18:13:19;8.70;;;4.13;;
11731;SDS011;5922;53.734;10.258;2022-08-04T18:15:46;10.10;;;4.03;;
11731;SDS011;5922;53.734;10.258;2022-08-04T18:18:15;8.43;;;3.33;;
11731;SDS011;5922;53.734;10.258;2022-08-04T18:20:42;8.80;;;3.60;;
11731;SDS011;5922;53.734;10.258;2022-08-04T18:23:10;5.67;;;3.60;;
11731;SDS011;5922;53.734;10.258;2022-08-04T18:25:38;8.47;;;3.87;;
11731;SDS011;5922;53.734;10.258;2022-08-04T18:28:05;12.63;;;4.00;;
11731;SDS011;5922;53.734;10.258;2022-08-04T18:30:33;7.80;;;4.13;;
11731;SDS011;5922;53.734;10.258;2022-08-04T18:33:01;11.03;;;3.53;;
11731;SDS011;5922;53.734;10.258;2022-08-04T18:35:28;8.80;;;3.97;;
11731;SDS011;5922;53.734;10.258;2022-08-04T18:37:57;9.13;;;4.33;;
11731;SDS011;5922;53.734;10.258;2022-08-04T18:40:25;7.30;;;3.87;;
11731;SDS011;5922;53.734;10.258;2022-08-04T18:42:53;12.07;;;4.80;;